Florence, Italy

11:47 AM CEST on April 18, 2015 (GMT +0200)
Peretola | | Change Station
CLOSE
Current Station
Airport
Location: Florence,
Elevation: 125 ft
Nearby Weather Stations
Active Advisory: Thunderstorms

Elev 125 ft 43.81 °N, 11.20 °E | Updated 27 minutes ago

Overcast
Overcast
57 °F
Feels Like 57 °F
N
2
Wind Variable Wind from Variable

Today
High -- | Low -- °F
--% Chance of Precip.
Yesterday
High -- | Low -- °F
Precip. -- in
6:28 AM 8:01 PM
Waning Crescent, 0% visible
Pressure 29.95 in
Visibility 4.3 miles
Clouds Few 300 ft
Mostly Cloudy 1800 ft
Overcast 7000 ft
Dew Point 57 °F
Humidity 100%
Rainfall 0.00 in
Snow Depth Not available.
UV 2 out of 12
Pollen Not available.
Air Quality Not available.
Flu Activity Not available.
METAR LIRQ 180920Z VRB02KT 7000 FEW003 BKN018 OVC070 14/14 Q1014

More Conditions Fewer Conditions

Pressure 29.95 in
Visibility 4.3 miles
Clouds Few 300 ft
Mostly Cloudy 1800 ft
Overcast 7000 ft
Dew Point 57 °F
Humidity 100%
Rainfall 0.00 in
Snow Depth Not available.
UV 2 out of 12
Pollen Not available.
Air Quality Not available.
Flu Activity Not available.
METAR LIRQ 180920Z VRB02KT 7000 FEW003 BKN018 OVC070 14/14 Q1014

More Conditions Fewer Conditions

10-Day Weather Forecast

Almanac

Astronomy

Apr. 18, 2015 Rise Set
Actual Time
Civil Twilight
Nautical Twilight
Astronomical Twilight
Moon
Length of Visible Light
Length of Day
Tomorrow will be .
, % of the Moon is Illuminated

Today's Extremes

Country Highs Country Lows

Community

WunderPhotos

Upload Photos

1,814,350 photos uploaded!

WunderBlogs® & News

Nearby

Air Quality

  Air Quality AQ Index Pollutant
Not available.

Snow Depth

Station Depth Elevation

Earthquake Activity

City Distance Mag. Time & Date
Minimum magnitude displayed is 2.5.

Coastal Water Temperatures

Place Temperature

Stations

Nearby Weather Stations

Station Location Temp. Windchill Dew Point Humidity Wind Precip. Elev Updated Type